Time;durP1;ratioP1;P1;durP2;ratioP2;P2;SDS_P1;SDS_P2;PMS_P1;PMS_P2;Temp;Humidity;BMP_temperature;BMP_pressure;BME280_temperature;BME280_humidity;BME280_pressure;Samples;Min_cycle;Max_cycle;Signal;HPM_P1;HPM_P2
2023/10/27 00:01:15;;;;;;;5.70;4.20;;;10.30;99.90;;;;;;4974862;28;20238;-68
2023/10/27 00:03:42;;;;;;;5.80;4.65;;;10.20;99.90;;;;;;4940897;28;20262;-68
2023/10/27 00:06:09;;;;;;;5.05;4.50;;;10.30;99.90;;;;;;4976629;28;20203;-68
2023/10/27 00:08:37;;;;;;;4.70;4.30;;;10.60;99.90;;;;;;4962432;28;20196;-68
2023/10/27 00:11:05;;;;;;;4.10;3.67;;;10.30;99.90;;;;;;4975083;28;20553;-68
2023/10/27 00:13:32;;;;;;;5.60;4.50;;;10.20;99.90;;;;;;4968908;28;20199;-68
2023/10/27 00:15:59;;;;;;;7.28;4.18;;;10.30;99.90;;;;;;4971370;28;20676;-68
2023/10/27 00:18:26;;;;;;;5.30;3.78;;;10.30;99.90;;;;;;4957843;28;20212;-69
2023/10/27 00:20:53;;;;;;;4.60;3.97;;;10.30;99.90;;;;;;4956408;28;20214;-68
2023/10/27 00:23:21;;;;;;;4.47;3.90;;;10.30;99.90;;;;;;4974220;28;20210;-68
2023/10/27 00:25:49;;;;;;;4.97;3.85;;;10.30;99.90;;;;;;4963131;28;20770;-68
2023/10/27 00:28:16;;;;;;;4.97;3.83;;;10.30;99.90;;;;;;4974492;28;20222;-68
2023/10/27 00:30:43;;;;;;;4.63;3.78;;;10.30;99.90;;;;;;4967484;28;20970;-68
2023/10/27 00:33:10;;;;;;;5.28;3.53;;;10.20;99.90;;;;;;4973816;28;20946;-68
2023/10/27 00:35:37;;;;;;;4.28;3.88;;;10.20;99.90;;;;;;4944972;28;20222;-68
2023/10/27 00:38:03;;;;;;;7.18;3.65;;;10.20;99.90;;;;;;4981077;28;20265;-68
2023/10/27 00:40:30;;;;;;;5.70;3.92;;;10.20;99.90;;;;;;4968169;28;20207;-68
2023/10/27 00:42:59;;;;;;;3.75;3.30;;;10.20;99.90;;;;;;4977147;28;21239;-68
2023/10/27 00:45:27;;;;;;;6.25;3.80;;;10.20;99.90;;;;;;4968647;28;20208;-68
2023/10/27 00:47:53;;;;;;;3.65;3.35;;;10.20;99.90;;;;;;4970707;28;20222;-68
2023/10/27 00:50:21;;;;;;;4.00;3.60;;;10.20;99.90;;;;;;4949519;28;20221;-68
2023/10/27 00:52:48;;;;;;;4.50;3.50;;;10.30;99.90;;;;;;4979274;28;20214;-68
2023/10/27 00:55:15;;;;;;;4.00;3.60;;;10.20;99.90;;;;;;4965404;28;21081;-68
2023/10/27 00:57:43;;;;;;;7.05;3.50;;;10.30;99.90;;;;;;4978066;28;21036;-68
2023/10/27 01:00:14;;;;;;;3.75;3.28;;;10.30;99.90;;;;;;4965417;28;20438;-68
2023/10/27 01:02:41;;;;;;;3.80;3.47;;;10.20;99.90;;;;;;4975705;28;20213;-68
2023/10/27 01:05:09;;;;;;;5.85;3.72;;;10.20;99.90;;;;;;4973237;28;20195;-68
2023/10/27 01:07:38;;;;;;;6.80;3.67;;;10.30;99.90;;;;;;4946656;28;20234;-68
2023/10/27 01:10:05;;;;;;;4.10;3.38;;;10.30;99.90;;;;;;4971293;28;20192;-68
2023/10/27 01:12:33;;;;;;;4.20;3.42;;;10.30;99.90;;;;;;4964756;28;20207;-68
2023/10/27 01:15:00;;;;;;;4.55;3.70;;;;;;;;;;4963244;28;20316;-68
2023/10/27 01:17:28;;;;;;;3.85;3.45;;;11.50;99.90;;;;;;4977930;28;20195;-68
2023/10/27 01:19:55;;;;;;;4.63;3.72;;;10.30;99.90;;;;;;4972073;28;20684;-68
2023/10/27 01:22:22;;;;;;;4.05;3.65;;;10.30;99.90;;;;;;4943965;28;20242;-68
2023/10/27 01:24:50;;;;;;;4.20;3.72;;;10.30;99.90;;;;;;4973842;28;20198;-68
2023/10/27 01:27:17;;;;;;;4.07;3.22;;;10.30;99.90;;;;;;4961570;28;21072;-68
2023/10/27 01:29:44;;;;;;;3.85;3.45;;;10.30;99.90;;;;;;4971523;28;20695;-68
2023/10/27 01:32:10;;;;;;;4.00;3.60;;;10.20;99.90;;;;;;4964110;28;20642;-68
2023/10/27 01:34:37;;;;;;;3.67;3.30;;;10.20;99.90;;;;;;4977338;28;20579;-68
2023/10/27 01:37:04;;;;;;;6.07;4.00;;;10.20;99.90;;;;;;4918618;28;21334;-68
2023/10/27 01:39:31;;;;;;;5.25;3.70;;;10.10;99.90;;;;;;4979276;28;20246;-68
2023/10/27 01:41:59;;;;;;;5.75;3.25;;;10.50;99.90;;;;;;4976345;28;20199;-68
2023/10/27 01:44:26;;;;;;;4.82;3.78;;;10.20;99.90;;;;;;4965310;28;20214;-68
2023/10/27 01:46:53;;;;;;;7.50;3.15;;;10.10;99.90;;;;;;4966501;28;20385;-68
2023/10/27 01:49:20;;;;;;;3.85;3.40;;;10.20;99.90;;;;;;4971630;28;22201;-68
2023/10/27 01:51:48;;;;;;;5.20;3.70;;;10.20;99.90;;;;;;4968111;28;20218;-68
2023/10/27 01:54:14;;;;;;;6.05;3.53;;;10.10;99.90;;;;;;4959245;28;20907;-68
2023/10/27 01:56:41;;;;;;;4.75;3.22;;;10.50;99.90;;;;;;4978651;28;20195;-68
2023/10/27 01:59:09;;;;;;;4.03;3.30;;;10.60;99.90;;;;;;4955832;28;20993;-68
2023/10/27 02:01:36;;;;;;;3.78;3.20;;;10.20;99.90;;;;;;4976556;28;20965;-68
2023/10/27 02:04:04;;;;;;;5.53;3.08;;;10.20;99.90;;;;;;4966856;28;20202;-68
2023/10/27 02:06:31;;;;;;;3.63;2.88;;;10.10;99.90;;;;;;4974147;28;20206;-68
2023/10/27 02:08:58;;;;;;;3.40;3.10;;;10.20;99.90;;;;;;4943283;28;20238;-68
2023/10/27 02:11:25;;;;;;;4.90;2.95;;;10.00;99.90;;;;;;4974798;28;20221;-68
2023/10/27 02:13:51;;;;;;;5.03;2.97;;;10.10;99.90;;;;;;4963283;28;20221;-68
2023/10/27 02:16:19;;;;;;;3.47;3.17;;;10.10;99.90;;;;;;4950763;28;20227;-68
2023/10/27 02:18:46;;;;;;;4.30;2.72;;;10.10;99.90;;;;;;4972028;28;20584;-68
2023/10/27 02:21:13;;;;;;;3.45;3.15;;;10.00;99.90;;;;;;4965448;28;20207;-68
2023/10/27 02:23:40;;;;;;;4.40;3.28;;;10.40;99.90;;;;;;4931817;28;20207;-68
2023/10/27 02:26:07;;;;;;;3.95;2.83;;;10.10;99.90;;;;;;4970435;28;20325;-68
2023/10/27 02:28:34;;;;;;;5.57;2.88;;;10.10;99.90;;;;;;4970742;28;20600;-68
2023/10/27 02:31:01;;;;;;;3.17;2.88;;;10.10;99.90;;;;;;4963562;28;20709;-68
2023/10/27 02:33:29;;;;;;;4.20;3.47;;;10.10;99.90;;;;;;4967967;28;20203;-68
2023/10/27 02:35:56;;;;;;;4.22;2.95;;;10.00;99.90;;;;;;4960647;28;20203;-68
2023/10/27 02:38:22;;;;;;;3.38;2.75;;;10.10;99.90;;;;;;4933865;28;20238;-68
2023/10/27 02:40:49;;;;;;;4.53;3.05;;;10.10;99.90;;;;;;4977134;28;20371;-68
2023/10/27 02:43:16;;;;;;;3.22;2.50;;;10.10;99.90;;;;;;4976689;28;20203;-68
2023/10/27 02:45:43;;;;;;;2.70;2.50;;;10.10;99.90;;;;;;4958352;28;20226;-68
2023/10/27 02:48:10;;;;;;;2.58;2.38;;;10.00;99.90;;;;;;4972304;28;20238;-68
2023/10/27 02:50:38;;;;;;;7.63;2.70;;;10.30;99.90;;;;;;4974596;28;20194;-68
2023/10/27 02:53:05;;;;;;;2.53;2.33;;;11.20;99.90;;;;;;4930438;28;20227;-68
2023/10/27 02:55:33;;;;;;;2.63;2.42;;;10.00;99.90;;;;;;4972395;28;20210;-68
2023/10/27 02:58:01;;;;;;;2.45;2.25;;;10.20;99.90;;;;;;4965215;28;20555;-68
2023/10/27 03:00:28;;;;;;;3.22;2.58;;;10.00;99.90;;;;;;4971592;28;20306;-68
2023/10/27 03:02:54;;;;;;;3.60;2.92;;;10.00;99.90;;;;;;4956255;28;20227;-68
2023/10/27 03:05:21;;;;;;;3.67;2.72;;;10.00;99.90;;;;;;4976482;28;20427;-68
2023/10/27 03:07:49;;;;;;;5.70;2.70;;;10.00;99.90;;;;;;4960912;28;20733;-68
2023/10/27 03:10:16;;;;;;;2.63;2.22;;;10.00;99.90;;;;;;4936993;28;20215;-68
2023/10/27 03:12:43;;;;;;;3.55;2.80;;;10.00;99.90;;;;;;4976196;28;20581;-68
2023/10/27 03:15:10;;;;;;;3.42;2.97;;;10.00;99.90;;;;;;4973585;28;20282;-68
2023/10/27 03:17:37;;;;;;;4.22;3.40;;;10.00;99.90;;;;;;4960625;28;20217;-68
2023/10/27 03:20:04;;;;;;;5.63;3.38;;;10.00;99.90;;;;;;4970222;28;20215;-67
2023/10/27 03:22:32;;;;;;;4.57;3.50;;;10.00;99.90;;;;;;4979649;28;20223;-68
2023/10/27 03:25:01;;;;;;;4.00;3.05;;;10.00;99.90;;;;;;4945950;28;20249;-68
2023/10/27 03:27:28;;;;;;;4.53;3.55;;;10.00;99.90;;;;;;4976986;28;20220;-68
2023/10/27 03:29:54;;;;;;;7.22;4.93;;;10.10;99.90;;;;;;4970524;28;21031;-68
2023/10/27 03:32:22;;;;;;;6.65;3.80;;;9.90;99.90;;;;;;4963457;28;20217;-68
2023/10/27 03:34:48;;;;;;;4.32;2.90;;;10.00;99.90;;;;;;4973471;28;20207;-68
2023/10/27 03:37:15;;;;;;;6.57;4.60;;;10.00;99.90;;;;;;4976911;28;20230;-68
2023/10/27 03:39:43;;;;;;;4.65;3.40;;;10.00;99.90;;;;;;4948344;28;21353;-68
2023/10/27 03:42:11;;;;;;;3.75;3.13;;;10.00;99.90;;;;;;4973027;28;20282;-68
2023/10/27 03:44:38;;;;;;;4.88;2.40;;;10.00;99.90;;;;;;4976507;28;20198;-68
2023/10/27 03:47:06;;;;;;;2.65;2.38;;;10.00;99.90;;;;;;4955198;28;20812;-68
2023/10/27 03:49:33;;;;;;;3.10;2.42;;;10.00;99.90;;;;;;4969247;28;20412;-68
2023/10/27 03:52:00;;;;;;;3.03;2.60;;;9.90;99.90;;;;;;4969670;28;20214;-68
2023/10/27 03:54:27;;;;;;;3.00;2.55;;;10.00;99.90;;;;;;4973016;28;20215;-68
2023/10/27 03:56:53;;;;;;;3.40;2.60;;;10.00;99.90;;;;;;4941536;28;21066;-68
2023/10/27 03:59:21;;;;;;;5.47;2.85;;;9.90;99.90;;;;;;4969086;28;20195;-68
2023/10/27 04:01:48;;;;;;;3.08;2.75;;;9.90;99.90;;;;;;4966162;28;20213;-68
2023/10/27 04:04:15;;;;;;;5.15;3.03;;;10.00;99.90;;;;;;4956359;28;20207;-68
2023/10/27 04:06:43;;;;;;;2.60;2.40;;;10.00;99.90;;;;;;4974126;28;20200;-68
2023/10/27 04:09:10;;;;;;;4.13;2.75;;;10.00;99.90;;;;;;4968779;28;20232;-68
2023/10/27 04:11:37;;;;;;;4.90;3.28;;;10.00;99.90;;;;;;4934428;28;20222;-68
2023/10/27 04:14:05;;;;;;;3.10;2.80;;;11.80;99.90;;;;;;4963738;28;20687;-68
2023/10/27 04:16:34;;;;;;;3.60;2.80;;;9.90;99.90;;;;;;4974454;28;20199;-68
2023/10/27 04:19:01;;;;;;;3.33;2.80;;;9.90;99.90;;;;;;4958558;28;20217;-68
2023/10/27 04:21:28;;;;;;;3.92;3.00;;;9.90;99.90;;;;;;4971083;28;20829;-68
2023/10/27 04:23:55;;;;;;;4.45;2.50;;;9.90;99.90;;;;;;4976721;28;20746;-68
2023/10/27 04:26:22;;;;;;;3.17;2.55;;;9.70;99.90;;;;;;4935163;28;20955;-68
2023/10/27 04:28:49;;;;;;;3.42;2.72;;;10.00;99.90;;;;;;4971997;28;20602;-68
2023/10/27 04:31:16;;;;;;;2.95;2.65;;;10.60;99.90;;;;;;4962154;28;20202;-68
2023/10/27 04:33:47;;;;;;;5.63;2.90;;;9.90;99.90;;;;;;4972592;28;20307;-68
2023/10/27 04:36:14;;;;;;;3.42;3.10;;;9.70;99.90;;;;;;4960048;28;20478;-68
2023/10/27 04:38:42;;;;;;;2.85;2.33;;;11.00;99.90;;;;;;4973640;28;20238;-68
2023/10/27 04:41:10;;;;;;;4.78;2.72;;;10.00;99.90;;;;;;4933228;28;20230;-68
2023/10/27 04:43:36;;;;;;;4.90;2.55;;;10.00;99.90;;;;;;4965137;28;21180;-67
2023/10/27 04:46:04;;;;;;;2.60;2.40;;;9.90;99.90;;;;;;4966701;28;20231;-68
2023/10/27 04:48:30;;;;;;;3.85;3.22;;;10.00;99.90;;;;;;4960406;28;20225;-68
2023/10/27 04:51:02;;;;;;;8.40;2.67;;;10.00;99.90;;;;;;4956438;28;20223;-68
2023/10/27 04:53:29;;;;;;;5.15;2.45;;;10.00;99.90;;;;;;4975702;28;20195;-68
2023/10/27 04:55:56;;;;;;;3.78;3.13;;;10.00;99.90;;;;;;4960298;28;20199;-68
2023/10/27 04:58:23;;;;;;;4.22;2.90;;;9.90;99.90;;;;;;4949068;28;20505;-68
2023/10/27 05:00:50;;;;;;;4.03;3.22;;;10.00;99.90;;;;;;4976329;28;20198;-67
2023/10/27 05:03:17;;;;;;;3.17;2.72;;;9.90;99.90;;;;;;4962126;28;20204;-68
2023/10/27 05:05:44;;;;;;;4.30;2.80;;;9.90;99.90;;;;;;4959807;28;20227;-68
2023/10/27 05:08:12;;;;;;;3.35;2.58;;;9.80;99.90;;;;;;4972142;28;20227;-68
2023/10/27 05:10:39;;;;;;;4.47;2.55;;;9.90;99.90;;;;;;4968939;28;20917;-68
2023/10/27 05:13:06;;;;;;;9.18;3.10;;;9.90;99.90;;;;;;4944891;28;20215;-68
2023/10/27 05:15:32;;;;;;;4.28;2.83;;;9.80;99.90;;;;;;4971631;28;20210;-68
2023/10/27 05:18:04;;;;;;;2.75;2.55;;;9.80;99.90;;;;;;4972219;28;20207;-68
2023/10/27 05:20:31;;;;;;;4.00;2.30;;;9.80;99.90;;;;;;4961053;28;20245;-68
2023/10/27 05:22:58;;;;;;;3.67;2.50;;;9.90;99.90;;;;;;4976120;28;20202;-68
2023/10/27 05:25:26;;;;;;;3.72;2.83;;;9.80;99.90;;;;;;4972636;28;20565;-67
2023/10/27 05:27:52;;;;;;;4.75;3.22;;;9.80;99.90;;;;;;4946046;28;20214;-68
2023/10/27 05:30:19;;;;;;;10.15;3.20;;;9.80;99.90;;;;;;4974514;28;20223;-68
2023/10/27 05:32:46;;;;;;;4.57;3.30;;;9.90;99.90;;;;;;4969051;28;20538;-68
2023/10/27 05:35:13;;;;;;;5.32;2.67;;;9.70;99.90;;;;;;4954676;28;20461;-68
2023/10/27 05:37:39;;;;;;;5.07;3.20;;;9.80;99.90;;;;;;4959409;28;20598;-68
2023/10/27 05:40:07;;;;;;;3.47;2.83;;;9.80;99.90;;;;;;4964954;28;20223;-68
2023/10/27 05:42:36;;;;;;;4.75;2.65;;;9.70;99.90;;;;;;4947660;28;20219;-68
2023/10/27 05:45:02;;;;;;;3.47;2.30;;;9.80;99.90;;;;;;4973562;28;20670;-68
2023/10/27 05:47:29;;;;;;;4.25;2.65;;;9.70;99.90;;;;;;4970342;28;20688;-68
2023/10/27 05:49:57;;;;;;;2.70;2.28;;;9.80;99.90;;;;;;4979148;28;20223;-68
2023/10/27 05:52:23;;;;;;;3.30;2.20;;;9.80;99.90;;;;;;4956664;28;20238;-68
2023/10/27 05:54:50;;;;;;;4.38;2.30;;;9.80;99.90;;;;;;4979888;28;21048;-68
2023/10/27 05:57:17;;;;;;;4.60;2.20;;;9.80;99.90;;;;;;4970629;28;20196;-68
2023/10/27 05:59:45;;;;;;;3.97;1.70;;;10.00;99.90;;;;;;4964261;28;20825;-68
2023/10/27 06:02:12;;;;;;;3.88;2.50;;;9.70;99.90;;;;;;4975414;28;21051;-68
2023/10/27 06:04:39;;;;;;;3.00;2.22;;;9.70;99.90;;;;;;4957898;28;20322;-68
2023/10/27 06:07:06;;;;;;;1.83;1.67;;;9.80;99.90;;;;;;4947919;28;20374;-68
2023/10/27 06:09:34;;;;;;;2.95;1.73;;;9.60;99.90;;;;;;4973390;28;20234;-67
2023/10/27 06:12:01;;;;;;;2.63;2.03;;;9.80;99.90;;;;;;4977549;28;20210;-67
2023/10/27 06:14:27;;;;;;;2.85;2.45;;;9.70;99.90;;;;;;4948892;28;21198;-68
2023/10/27 06:16:56;;;;;;;2.30;2.00;;;9.60;99.90;;;;;;4971361;28;20833;-68
2023/10/27 06:19:24;;;;;;;3.17;1.98;;;9.90;99.90;;;;;;4969741;28;20207;-67
2023/10/27 06:21:51;;;;;;;2.05;1.65;;;9.50;99.90;;;;;;4955474;28;20229;-68
2023/10/27 06:24:18;;;;;;;2.35;1.73;;;;;;;;;;4969055;28;20222;-67
2023/10/27 06:26:45;;;;;;;3.28;1.98;;;8.70;99.90;;;;;;4960980;28;20227;-68
2023/10/27 06:29:11;;;;;;;1.92;1.70;;;9.70;99.90;;;;;;4949522;28;20222;-68
2023/10/27 06:31:39;;;;;;;1.92;1.60;;;9.80;99.90;;;;;;4981911;28;20203;-68
2023/10/27 06:34:07;;;;;;;3.85;2.20;;;9.70;99.90;;;;;;4977449;28;20441;-68
2023/10/27 06:36:34;;;;;;;2.25;2.05;;;9.70;99.90;;;;;;4973731;28;20204;-68
2023/10/27 06:39:01;;;;;;;2.55;1.80;;;9.60;99.90;;;;;;4964131;28;20983;-68
2023/10/27 06:41:27;;;;;;;2.58;1.88;;;9.70;99.90;;;;;;4977252;28;20578;-68
2023/10/27 06:43:54;;;;;;;2.83;1.80;;;9.90;99.90;;;;;;4943971;28;20675;-68
2023/10/27 06:46:22;;;;;;;2.33;1.92;;;9.80;99.90;;;;;;4964748;28;20817;-68
2023/10/27 06:48:48;;;;;;;2.35;2.03;;;9.70;99.90;;;;;;4968233;28;20309;-68
2023/10/27 06:51:16;;;;;;;7.43;2.08;;;9.70;99.90;;;;;;4977150;28;20199;-68
2023/10/27 06:53:43;;;;;;;2.95;1.90;;;9.70;99.90;;;;;;4958135;28;20682;-68
2023/10/27 06:56:10;;;;;;;2.97;1.88;;;9.70;99.90;;;;;;4971966;28;20448;-68
2023/10/27 06:58:37;;;;;;;3.72;2.40;;;9.70;99.90;;;;;;4972583;28;20200;-68
2023/10/27 07:01:07;;;;;;;3.58;2.40;;;9.60;99.90;;;;;;4925717;28;20421;-68
2023/10/27 07:03:35;;;;;;;3.33;2.42;;;9.60;99.90;;;;;;4968775;28;20226;-67
2023/10/27 07:06:03;;;;;;;5.00;2.55;;;9.70;99.90;;;;;;4969491;28;20223;-68
2023/10/27 07:08:31;;;;;;;3.28;2.20;;;9.70;99.90;;;;;;4977894;28;20563;-68
2023/10/27 07:10:59;;;;;;;2.83;2.40;;;9.70;99.90;;;;;;4965396;28;21061;-68
2023/10/27 07:13:25;;;;;;;4.40;2.72;;;9.60;99.90;;;;;;4972058;28;20207;-68
2023/10/27 07:15:53;;;;;;;3.00;2.43;;;9.70;99.90;;;;;;4944042;28;21523;-68
2023/10/27 07:18:19;;;;;;;3.90;2.53;;;9.70;99.90;;;;;;4959681;28;20195;-68
2023/10/27 07:20:46;;;;;;;2.88;2.53;;;9.70;99.90;;;;;;4974310;28;20795;-68
2023/10/27 07:23:13;;;;;;;5.65;3.20;;;9.70;99.90;;;;;;4964476;28;20404;-68
2023/10/27 07:25:41;;;;;;;6.50;3.00;;;9.70;99.90;;;;;;4962777;28;20692;-68
2023/10/27 07:28:08;;;;;;;4.13;3.13;;;9.70;99.90;;;;;;4969603;28;20500;-68
2023/10/27 07:30:35;;;;;;;4.13;2.78;;;9.70;99.90;;;;;;4975273;28;21284;-68
2023/10/27 07:33:03;;;;;;;4.70;3.20;;;9.60;99.90;;;;;;4942147;28;20254;-68
2023/10/27 07:35:31;;;;;;;5.78;3.38;;;9.80;99.90;;;;;;4978243;28;20245;-68
2023/10/27 07:37:58;;;;;;;4.63;3.05;;;9.70;99.90;;;;;;4963454;28;20564;-68
2023/10/27 07:40:25;;;;;;;3.88;3.15;;;9.70;99.90;;;;;;4959245;28;21462;-68
2023/10/27 07:42:57;;;;;;;4.95;3.22;;;9.80;99.90;;;;;;4966236;28;20414;-68
2023/10/27 07:45:25;;;;;;;5.13;3.40;;;;;;;;;;4976861;28;20321;-68
2023/10/27 07:47:52;;;;;;;7.53;2.80;;;9.70;99.90;;;;;;4934840;28;20199;-68
2023/10/27 07:50:19;;;;;;;3.97;2.63;;;9.50;99.90;;;;;;4966268;28;20234;-67
2023/10/27 07:52:46;;;;;;;5.20;3.30;;;9.80;99.90;;;;;;4967560;28;20693;-68
2023/10/27 07:55:13;;;;;;;7.05;3.03;;;9.80;99.90;;;;;;4947994;28;20230;-68
2023/10/27 07:57:40;;;;;;;5.75;3.55;;;9.90;99.90;;;;;;4948400;28;20203;-68
2023/10/27 08:00:10;;;;;;;6.72;3.60;;;9.90;99.90;;;;;;4966303;28;20405;-68
2023/10/27 08:02:38;;;;;;;5.00;3.45;;;9.80;99.90;;;;;;4954670;28;20246;-68
2023/10/27 08:05:06;;;;;;;4.68;3.20;;;9.90;99.90;;;;;;4921211;28;20235;-68
2023/10/27 08:07:33;;;;;;;7.15;3.60;;;9.90;99.90;;;;;;4956183;28;20230;-68
2023/10/27 08:09:59;;;;;;;7.53;3.53;;;9.70;99.90;;;;;;4957269;28;20226;-69
2023/10/27 08:12:26;;;;;;;5.30;3.92;;;;;;;;;;4960856;28;20540;-68
2023/10/27 08:14:53;;;;;;;5.45;4.15;;;9.90;99.90;;;;;;4966285;28;20214;-67
2023/10/27 08:17:21;;;;;;;6.40;4.18;;;9.90;99.90;;;;;;4954568;28;21550;-68
2023/10/27 08:19:48;;;;;;;4.95;3.70;;;9.90;99.90;;;;;;4926353;28;20611;-68
2023/10/27 08:22:15;;;;;;;4.00;3.15;;;9.90;99.90;;;;;;4956185;28;20333;-68
2023/10/27 08:24:42;;;;;;;3.72;3.05;;;10.00;99.90;;;;;;4970282;28;20200;-68
2023/10/27 08:27:08;;;;;;;5.10;3.45;;;9.90;99.90;;;;;;4953913;28;20225;-68
2023/10/27 08:29:35;;;;;;;5.57;3.97;;;9.90;99.90;;;;;;4969893;28;20234;-67
2023/10/27 08:32:02;;;;;;;7.45;3.83;;;10.00;99.90;;;;;;4963473;28;20203;-68
2023/10/27 08:34:30;;;;;;;5.07;3.72;;;9.70;99.90;;;;;;4952881;28;20305;-68
2023/10/27 08:36:57;;;;;;;4.45;3.13;;;7.60;99.90;;;;;;4935838;28;20839;-69
2023/10/27 08:39:25;;;;;;;4.95;3.30;;;11.20;99.90;;;;;;4961147;28;20914;-68
2023/10/27 08:41:52;;;;;;;4.22;3.28;;;9.90;99.90;;;;;;4962890;28;20230;-68
2023/10/27 08:44:21;;;;;;;5.05;3.15;;;9.90;99.90;;;;;;4962642;28;20222;-68
2023/10/27 08:46:48;;;;;;;6.28;3.47;;;9.70;99.90;;;;;;4962379;28;20811;-68
2023/10/27 08:49:16;;;;;;;6.68;3.60;;;9.90;99.90;;;;;;4945110;28;20451;-68
2023/10/27 08:51:46;;;;;;;5.15;3.67;;;9.90;99.90;;;;;;4946849;28;20215;-69
2023/10/27 08:54:12;;;;;;;6.35;3.60;;;10.10;99.90;;;;;;4952834;28;20253;-68
2023/10/27 08:56:40;;;;;;;7.80;3.65;;;9.90;99.90;;;;;;4969574;28;20222;-67
2023/10/27 08:59:09;;;;;;;4.35;3.47;;;9.10;99.90;;;;;;4965999;28;20229;-67
2023/10/27 09:01:36;;;;;;;6.88;4.25;;;10.00;99.90;;;;;;4951209;28;21104;-67
2023/10/27 09:04:08;;;;;;;6.38;4.10;;;10.00;99.90;;;;;;4964175;28;20219;-67
2023/10/27 09:06:35;;;;;;;6.18;4.20;;;10.10;99.90;;;;;;4930639;28;20238;-68
2023/10/27 09:09:05;;;;;;;8.82;4.10;;;9.90;99.90;;;;;;4968054;28;20252;-67
2023/10/27 09:11:40;;;;;;;5.43;3.75;;;9.90;99.90;;;;;;4974754;28;20600;-67
2023/10/27 09:14:17;;;;;;;5.85;4.15;;;9.90;99.90;;;;;;4961340;28;20233;-69
2023/10/27 09:16:44;;;;;;;5.90;4.20;;;10.00;99.90;;;;;;4963210;28;20203;-67
2023/10/27 09:19:19;;;;;;;6.88;4.22;;;10.30;99.90;;;;;;4957251;28;20203;-67
2023/10/27 09:21:46;;;;;;;7.40;3.88;;;9.90;99.90;;;;;;4934477;28;20257;-67
2023/10/27 09:24:25;;;;;;;5.60;4.05;;;9.90;99.90;;;;;;4972933;28;20195;-67
2023/10/27 09:26:52;;;;;;;7.95;3.90;;;10.50;99.90;;;;;;4975886;28;20199;-67
2023/10/27 09:29:19;;;;;;;5.00;3.67;;;9.30;99.90;;;;;;4939859;28;20227;-67
2023/10/27 09:31:46;;;;;;;12.82;4.28;;;10.10;99.90;;;;;;4963927;28;20199;-67
2023/10/27 09:34:17;;;;;;;6.85;4.30;;;10.00;99.90;;;;;;4971767;28;20217;-67
2023/10/27 09:36:46;;;;;;;6.72;4.03;;;10.10;99.90;;;;;;4960295;28;20206;-67
2023/10/27 09:39:18;;;;;;;8.55;4.43;;;;;;;;;;4943355;28;20237;-67
2023/10/27 09:41:47;;;;;;;6.43;4.05;;;10.10;99.90;;;;;;4977546;28;20223;-67
2023/10/27 09:44:16;;;;;;;7.03;3.80;;;10.00;99.90;;;;;;4960504;28;20890;-67
2023/10/27 09:46:52;;;;;;;7.10;4.88;;;10.00;99.90;;;;;;4976148;28;20218;-67
2023/10/27 09:49:34;;;;;;;5.80;4.00;;;10.80;99.90;;;;;;4957250;28;20218;-68
2023/10/27 09:52:02;;;;;;;8.43;4.05;;;10.00;99.90;;;;;;4944217;28;20213;-67
2023/10/27 09:54:33;;;;;;;5.85;4.30;;;10.00;99.90;;;;;;4941010;28;20513;-67
2023/10/27 09:57:01;;;;;;;6.57;4.10;;;10.00;99.90;;;;;;4972511;28;20203;-67
2023/10/27 09:59:30;;;;;;;6.95;4.40;;;10.10;99.90;;;;;;4960556;28;21290;-67
2023/10/27 10:01:57;;;;;;;7.50;4.25;;;10.20;99.90;;;;;;4977204;28;20695;-67
2023/10/27 10:05:00;;;;;;;6.68;4.80;;;10.20;99.90;;;;;;4956930;28;20418;-67
2023/10/27 10:07:31;;;;;;;6.63;4.70;;;10.20;99.90;;;;;;4865480;29;20235;-67
2023/10/27 10:10:00;;;;;;;9.95;5.38;;;10.10;99.90;;;;;;4928782;28;20227;-67
2023/10/27 10:12:27;;;;;;;7.13;4.20;;;10.20;99.90;;;;;;4971877;28;20434;-67
2023/10/27 10:14:59;;;;;;;7.13;4.40;;;10.60;99.90;;;;;;4964467;28;20218;-67
2023/10/27 10:17:41;;;;;;;6.28;4.30;;;10.20;99.90;;;;;;4964493;28;20227;-67
2023/10/27 10:20:10;;;;;;;6.57;4.82;;;10.20;99.90;;;;;;4958172;28;20288;-67
2023/10/27 10:22:53;;;;;;;6.47;4.55;;;10.10;99.90;;;;;;4942615;28;20223;-67
2023/10/27 10:25:28;;;;;;;5.60;4.30;;;10.10;99.90;;;;;;4942548;28;20219;-67
2023/10/27 10:28:27;;;;;;;9.45;4.25;;;10.10;99.90;;;;;;4974429;28;20199;-67
2023/10/27 10:31:22;;;;;;;9.07;4.50;;;10.30;99.90;;;;;;4956118;28;20234;-67
2023/10/27 10:33:51;;;;;;;6.07;4.30;;;10.30;99.90;;;;;;4958816;28;20311;-67
2023/10/27 10:36:26;;;;;;;6.13;4.30;;;10.40;99.90;;;;;;4953599;28;20231;-67
2023/10/27 10:39:03;;;;;;;5.43;4.20;;;10.40;99.90;;;;;;4964437;28;20226;-67
2023/10/27 10:42:03;;;;;;;9.65;4.95;;;10.50;99.90;;;;;;4940361;28;20239;-67
2023/10/27 10:44:31;;;;;;;10.98;4.20;;;10.40;99.90;;;;;;4966439;28;20207;-67
2023/10/27 10:47:03;;;;;;;6.95;4.53;;;10.30;99.90;;;;;;4962004;28;20231;-67
2023/10/27 10:49:31;;;;;;;6.65;4.53;;;10.40;99.90;;;;;;4965193;28;20230;-67
2023/10/27 10:52:00;;;;;;;6.20;4.88;;;10.50;99.90;;;;;;4955418;28;20257;-67
2023/10/27 10:54:30;;;;;;;7.28;4.63;;;10.60;99.90;;;;;;4957623;28;20242;-67
2023/10/27 10:57:08;;;;;;;6.22;4.38;;;10.40;99.90;;;;;;4937499;28;20218;-67
2023/10/27 10:59:36;;;;;;;8.38;5.07;;;;;;;;;;4965528;28;20952;-67
2023/10/27 11:02:05;;;;;;;8.52;4.65;;;10.40;99.90;;;;;;4963852;28;20218;-67
2023/10/27 11:04:33;;;;;;;6.57;4.20;;;10.40;99.90;;;;;;4972833;28;20280;-66
2023/10/27 11:07:02;;;;;;;7.80;4.53;;;10.40;99.90;;;;;;4958425;28;20688;-67
2023/10/27 11:09:28;;;;;;;6.28;4.50;;;10.40;99.90;;;;;;4962062;28;20202;-67
2023/10/27 11:11:55;;;;;;;5.78;4.63;;;11.10;99.90;;;;;;4942283;28;20228;-67
2023/10/27 11:14:24;;;;;;;5.90;4.50;;;10.40;99.90;;;;;;4954444;28;20236;-67
2023/10/27 11:16:59;;;;;;;9.60;4.85;;;10.50;99.90;;;;;;4954748;28;20830;-67
2023/10/27 11:19:26;;;;;;;7.93;4.70;;;10.40;99.90;;;;;;4956911;28;20215;-67
2023/10/27 11:21:54;;;;;;;10.27;4.78;;;10.40;99.90;;;;;;4946575;28;20230;-67
2023/10/27 11:24:21;;;;;;;8.27;5.07;;;10.50;99.90;;;;;;4965387;28;20218;-67
2023/10/27 11:26:53;;;;;;;6.93;4.85;;;10.60;99.90;;;;;;4925366;28;20227;-67
2023/10/27 11:29:20;;;;;;;6.65;4.82;;;10.50;99.90;;;;;;4954748;28;20258;-67
2023/10/27 11:31:48;;;;;;;6.80;4.40;;;7.00;99.90;;;;;;4956800;28;20231;-67
2023/10/27 11:34:21;;;;;;;5.88;4.07;;;10.60;99.90;;;;;;4956297;28;20223;-67
2023/10/27 11:37:00;;;;;;;7.07;4.80;;;10.90;99.90;;;;;;4940182;28;20219;-67
2023/10/27 11:39:27;;;;;;;6.47;4.70;;;10.60;99.90;;;;;;4957266;28;20250;-67
2023/10/27 11:41:55;;;;;;;5.97;4.28;;;10.70;99.90;;;;;;4952503;28;20479;-67
2023/10/27 11:44:23;;;;;;;7.82;5.32;;;10.60;99.90;;;;;;4922090;28;20239;-67
2023/10/27 11:46:53;;;;;;;7.82;4.93;;;10.60;99.90;;;;;;4965450;28;20209;-67
2023/10/27 11:49:20;;;;;;;11.40;5.10;;;10.50;99.90;;;;;;4959154;28;20209;-67
2023/10/27 11:51:48;;;;;;;6.15;4.55;;;9.80;99.90;;;;;;4946223;28;20263;-67
2023/10/27 11:54:16;;;;;;;6.78;4.47;;;10.50;99.90;;;;;;4942105;28;20222;-67
2023/10/27 11:56:42;;;;;;;12.18;5.20;;;10.20;99.90;;;;;;4936593;28;20238;-67
2023/10/27 11:59:10;;;;;;;7.63;4.82;;;;;;;;;;4925312;28;20234;-67
2023/10/27 12:01:37;;;;;;;7.63;4.88;;;10.60;99.90;;;;;;4966428;28;20804;-67
2023/10/27 12:04:07;;;;;;;10.00;4.88;;;10.60;99.90;;;;;;4953779;28;20232;-67
2023/10/27 12:06:34;;;;;;;8.52;5.03;;;10.90;99.90;;;;;;4942675;28;20235;-67
2023/10/27 12:09:01;;;;;;;7.13;4.90;;;10.70;99.90;;;;;;4955785;28;20293;-67
2023/10/27 12:11:29;;;;;;;8.70;4.65;;;10.70;99.90;;;;;;4945900;28;20241;-67
2023/10/27 12:13:56;;;;;;;13.80;4.68;;;10.70;99.90;;;;;;4938123;28;20612;-67
2023/10/27 12:16:24;;;;;;;9.75;5.90;;;10.70;99.90;;;;;;4952944;28;20218;-67
2023/10/27 12:18:51;;;;;;;8.85;5.47;;;10.70;99.90;;;;;;4951497;28;20227;-67
2023/10/27 12:21:19;;;;;;;6.93;5.28;;;11.10;99.90;;;;;;4939476;28;20855;-67
2023/10/27 12:23:46;;;;;;;7.40;5.07;;;10.60;99.90;;;;;;4936709;28;20230;-67
2023/10/27 12:26:13;;;;;;;7.80;5.22;;;10.70;99.90;;;;;;4924311;28;21463;-67
2023/10/27 12:28:40;;;;;;;7.18;4.93;;;10.60;99.90;;;;;;4940327;28;20245;-67
2023/10/27 12:31:07;;;;;;;7.32;4.53;;;10.70;99.90;;;;;;4962754;28;21097;-67
2023/10/27 12:33:34;;;;;;;8.13;5.57;;;10.70;99.90;;;;;;4951942;28;20579;-67
2023/10/27 12:36:06;;;;;;;8.20;5.05;;;10.70;99.90;;;;;;4975536;28;20213;-67
2023/10/27 12:38:35;;;;;;;8.95;5.45;;;10.60;99.90;;;;;;4969919;28;20234;-68
2023/10/27 12:41:02;;;;;;;8.00;4.55;;;10.60;99.90;;;;;;4953685;28;20226;-68
2023/10/27 12:43:29;;;;;;;8.27;5.07;;;10.60;99.90;;;;;;4947786;28;20794;-68
2023/10/27 12:45:56;;;;;;;8.10;5.82;;;10.60;99.90;;;;;;4942130;28;21154;-67
2023/10/27 12:48:23;;;;;;;8.05;5.82;;;9.50;99.90;;;;;;4969463;28;21011;-67
2023/10/27 12:50:50;;;;;;;8.43;5.72;;;10.80;99.90;;;;;;4963830;28;20860;-67
2023/10/27 12:53:18;;;;;;;9.07;5.68;;;10.70;99.90;;;;;;4977305;28;20571;-67
2023/10/27 12:55:46;;;;;;;8.85;5.43;;;10.70;99.90;;;;;;4960807;28;21285;-67
2023/10/27 12:58:13;;;;;;;9.93;5.00;;;10.60;99.90;;;;;;4980816;28;20202;-67